sensor_id;sensor_type;location;lat;lon;timestamp;P1;durP1;ratioP1;P2;durP2;ratioP2
34317;SDS011;20582;52.196;20.952;2023-03-01T00:02:02;98.95;;;43.50;;
34317;SDS011;20582;52.196;20.952;2023-03-01T00:04:29;102.28;;;44.10;;
34317;SDS011;20582;52.196;20.952;2023-03-01T00:06:55;103.10;;;43.05;;
34317;SDS011;20582;52.196;20.952;2023-03-01T00:09:21;108.85;;;43.33;;
34317;SDS011;20582;52.196;20.952;2023-03-01T00:11:47;105.85;;;43.30;;
34317;SDS011;20582;52.196;20.952;2023-03-01T00:14:13;110.43;;;46.42;;
34317;SDS011;20582;52.196;20.952;2023-03-01T00:16:41;109.47;;;44.67;;
34317;SDS011;20582;52.196;20.952;2023-03-01T00:19:09;114.22;;;47.30;;
34317;SDS011;20582;52.196;20.952;2023-03-01T00:21:36;104.72;;;44.72;;
34317;SDS011;20582;52.196;20.952;2023-03-01T00:24:03;107.43;;;44.58;;
34317;SDS011;20582;52.196;20.952;2023-03-01T00:26:29;114.88;;;47.05;;
34317;SDS011;20582;52.196;20.952;2023-03-01T00:28:56;104.28;;;43.10;;
34317;SDS011;20582;52.196;20.952;2023-03-01T00:31:23;109.68;;;45.75;;
34317;SDS011;20582;52.196;20.952;2023-03-01T00:33:52;105.93;;;42.75;;
34317;SDS011;20582;52.196;20.952;2023-03-01T00:36:21;105.38;;;43.88;;
34317;SDS011;20582;52.196;20.952;2023-03-01T00:38:47;108.30;;;46.38;;
34317;SDS011;20582;52.196;20.952;2023-03-01T00:41:14;102.05;;;44.60;;
34317;SDS011;20582;52.196;20.952;2023-03-01T00:43:40;101.50;;;42.45;;
34317;SDS011;20582;52.196;20.952;2023-03-01T00:46:08;98.18;;;43.95;;
34317;SDS011;20582;52.196;20.952;2023-03-01T00:48:35;104.82;;;41.60;;
34317;SDS011;20582;52.196;20.952;2023-03-01T00:51:04;90.10;;;39.95;;
34317;SDS011;20582;52.196;20.952;2023-03-01T00:53:30;107.00;;;40.20;;
34317;SDS011;20582;52.196;20.952;2023-03-01T00:55:57;103.47;;;40.40;;
34317;SDS011;20582;52.196;20.952;2023-03-01T00:58:23;95.53;;;38.47;;
34317;SDS011;20582;52.196;20.952;2023-03-01T01:00:49;98.22;;;43.15;;
34317;SDS011;20582;52.196;20.952;2023-03-01T01:03:15;93.35;;;37.83;;
34317;SDS011;20582;52.196;20.952;2023-03-01T01:05:41;87.53;;;38.50;;
34317;SDS011;20582;52.196;20.952;2023-03-01T01:08:07;94.88;;;40.05;;
34317;SDS011;20582;52.196;20.952;2023-03-01T01:10:33;97.70;;;41.08;;
34317;SDS011;20582;52.196;20.952;2023-03-01T01:13:00;88.85;;;37.50;;
34317;SDS011;20582;52.196;20.952;2023-03-01T01:15:26;89.38;;;38.65;;
34317;SDS011;20582;52.196;20.952;2023-03-01T01:17:52;82.63;;;38.08;;
34317;SDS011;20582;52.196;20.952;2023-03-01T01:20:18;89.45;;;38.00;;
34317;SDS011;20582;52.196;20.952;2023-03-01T01:22:44;90.57;;;37.00;;
34317;SDS011;20582;52.196;20.952;2023-03-01T01:25:10;87.45;;;36.83;;
34317;SDS011;20582;52.196;20.952;2023-03-01T01:27:36;89.70;;;36.63;;
34317;SDS011;20582;52.196;20.952;2023-03-01T01:30:02;84.03;;;37.03;;
34317;SDS011;20582;52.196;20.952;2023-03-01T01:32:28;85.50;;;34.85;;
34317;SDS011;20582;52.196;20.952;2023-03-01T01:34:54;89.97;;;37.67;;
34317;SDS011;20582;52.196;20.952;2023-03-01T01:37:21;83.13;;;34.80;;
34317;SDS011;20582;52.196;20.952;2023-03-01T01:39:47;81.78;;;34.17;;
34317;SDS011;20582;52.196;20.952;2023-03-01T01:42:16;86.35;;;35.90;;
34317;SDS011;20582;52.196;20.952;2023-03-01T01:44:45;86.15;;;35.88;;
34317;SDS011;20582;52.196;20.952;2023-03-01T01:47:12;84.78;;;34.17;;
34317;SDS011;20582;52.196;20.952;2023-03-01T01:57:19;83.40;;;36.58;;
34317;SDS011;20582;52.196;20.952;2023-03-01T01:59:48;85.03;;;36.63;;
34317;SDS011;20582;52.196;20.952;2023-03-01T02:02:15;85.05;;;35.40;;
34317;SDS011;20582;52.196;20.952;2023-03-01T02:04:42;94.30;;;36.90;;
34317;SDS011;20582;52.196;20.952;2023-03-01T02:07:15;89.30;;;40.20;;
34317;SDS011;20582;52.196;20.952;2023-03-01T02:09:48;94.60;;;38.97;;
34317;SDS011;20582;52.196;20.952;2023-03-01T02:12:15;85.53;;;36.95;;
34317;SDS011;20582;52.196;20.952;2023-03-01T02:14:42;83.72;;;38.72;;
34317;SDS011;20582;52.196;20.952;2023-03-01T02:17:08;83.85;;;36.13;;
34317;SDS011;20582;52.196;20.952;2023-03-01T02:22:26;90.93;;;35.92;;
34317;SDS011;20582;52.196;20.952;2023-03-01T02:27:40;80.40;;;36.08;;
34317;SDS011;20582;52.196;20.952;2023-03-01T02:30:09;76.20;;;34.78;;
34317;SDS011;20582;52.196;20.952;2023-03-01T02:32:37;91.45;;;40.47;;
34317;SDS011;20582;52.196;20.952;2023-03-01T02:35:06;102.13;;;40.20;;
34317;SDS011;20582;52.196;20.952;2023-03-01T02:37:33;96.50;;;39.38;;
34317;SDS011;20582;52.196;20.952;2023-03-01T02:40:02;102.30;;;42.40;;
34317;SDS011;20582;52.196;20.952;2023-03-01T02:42:36;103.13;;;42.30;;
34317;SDS011;20582;52.196;20.952;2023-03-01T02:45:04;95.63;;;41.38;;
34317;SDS011;20582;52.196;20.952;2023-03-01T02:47:30;95.57;;;40.10;;
34317;SDS011;20582;52.196;20.952;2023-03-01T02:49:56;90.00;;;39.85;;
34317;SDS011;20582;52.196;20.952;2023-03-01T02:55:02;92.15;;;37.95;;
34317;SDS011;20582;52.196;20.952;2023-03-01T02:57:29;87.63;;;36.72;;
34317;SDS011;20582;52.196;20.952;2023-03-01T02:59:56;95.80;;;38.75;;
34317;SDS011;20582;52.196;20.952;2023-03-01T03:02:24;96.50;;;39.85;;
34317;SDS011;20582;52.196;20.952;2023-03-01T03:05:04;99.72;;;42.75;;
34317;SDS011;20582;52.196;20.952;2023-03-01T03:07:31;90.25;;;39.33;;
34317;SDS011;20582;52.196;20.952;2023-03-01T03:09:57;101.78;;;40.20;;
34317;SDS011;20582;52.196;20.952;2023-03-01T03:12:23;96.30;;;38.40;;
34317;SDS011;20582;52.196;20.952;2023-03-01T03:14:49;92.18;;;37.47;;
34317;SDS011;20582;52.196;20.952;2023-03-01T03:17:15;97.93;;;41.90;;
34317;SDS011;20582;52.196;20.952;2023-03-01T03:19:40;95.70;;;39.92;;
34317;SDS011;20582;52.196;20.952;2023-03-01T03:22:10;90.93;;;37.25;;
34317;SDS011;20582;52.196;20.952;2023-03-01T03:24:36;90.13;;;41.88;;
34317;SDS011;20582;52.196;20.952;2023-03-01T03:27:03;95.50;;;38.47;;
34317;SDS011;20582;52.196;20.952;2023-03-01T03:29:29;89.10;;;37.08;;
34317;SDS011;20582;52.196;20.952;2023-03-01T03:31:55;91.78;;;38.70;;
34317;SDS011;20582;52.196;20.952;2023-03-01T03:34:21;93.00;;;40.90;;
34317;SDS011;20582;52.196;20.952;2023-03-01T03:36:48;88.70;;;37.22;;
34317;SDS011;20582;52.196;20.952;2023-03-01T03:39:14;97.57;;;38.13;;
34317;SDS011;20582;52.196;20.952;2023-03-01T03:41:40;93.78;;;40.28;;
34317;SDS011;20582;52.196;20.952;2023-03-01T03:44:06;87.05;;;36.95;;
34317;SDS011;20582;52.196;20.952;2023-03-01T03:46:32;93.38;;;37.58;;
34317;SDS011;20582;52.196;20.952;2023-03-01T03:48:57;92.43;;;38.78;;
34317;SDS011;20582;52.196;20.952;2023-03-01T03:51:23;86.25;;;37.38;;
34317;SDS011;20582;52.196;20.952;2023-03-01T03:53:51;82.05;;;35.78;;
34317;SDS011;20582;52.196;20.952;2023-03-01T03:56:17;81.53;;;36.47;;
34317;SDS011;20582;52.196;20.952;2023-03-01T03:58:43;92.25;;;38.55;;
34317;SDS011;20582;52.196;20.952;2023-03-01T04:01:09;89.90;;;39.08;;
34317;SDS011;20582;52.196;20.952;2023-03-01T04:03:35;87.20;;;38.17;;
34317;SDS011;20582;52.196;20.952;2023-03-01T04:06:01;87.28;;;38.35;;
34317;SDS011;20582;52.196;20.952;2023-03-01T04:08:27;91.15;;;36.35;;
34317;SDS011;20582;52.196;20.952;2023-03-01T04:10:58;88.05;;;37.05;;
34317;SDS011;20582;52.196;20.952;2023-03-01T04:13:25;89.32;;;36.42;;
34317;SDS011;20582;52.196;20.952;2023-03-01T04:15:52;88.95;;;37.17;;
34317;SDS011;20582;52.196;20.952;2023-03-01T04:18:19;84.80;;;35.95;;
34317;SDS011;20582;52.196;20.952;2023-03-01T04:20:45;92.43;;;38.25;;
34317;SDS011;20582;52.196;20.952;2023-03-01T04:23:16;90.00;;;35.42;;
34317;SDS011;20582;52.196;20.952;2023-03-01T04:28:20;89.30;;;38.10;;
34317;SDS011;20582;52.196;20.952;2023-03-01T04:30:46;94.63;;;37.92;;
34317;SDS011;20582;52.196;20.952;2023-03-01T04:33:12;91.40;;;37.38;;
34317;SDS011;20582;52.196;20.952;2023-03-01T04:35:39;95.03;;;39.08;;
34317;SDS011;20582;52.196;20.952;2023-03-01T04:38:05;93.53;;;39.05;;
34317;SDS011;20582;52.196;20.952;2023-03-01T04:40:32;90.03;;;37.03;;
34317;SDS011;20582;52.196;20.952;2023-03-01T04:42:58;102.22;;;40.78;;
34317;SDS011;20582;52.196;20.952;2023-03-01T04:45:24;91.22;;;37.08;;
34317;SDS011;20582;52.196;20.952;2023-03-01T04:47:50;94.00;;;38.53;;
34317;SDS011;20582;52.196;20.952;2023-03-01T04:50:17;99.50;;;41.00;;
34317;SDS011;20582;52.196;20.952;2023-03-01T04:52:45;97.28;;;40.63;;
34317;SDS011;20582;52.196;20.952;2023-03-01T04:55:11;91.50;;;38.53;;
34317;SDS011;20582;52.196;20.952;2023-03-01T04:57:37;89.63;;;36.10;;
34317;SDS011;20582;52.196;20.952;2023-03-01T05:00:04;93.47;;;38.75;;
34317;SDS011;20582;52.196;20.952;2023-03-01T05:02:56;94.07;;;37.90;;
34317;SDS011;20582;52.196;20.952;2023-03-01T05:07:52;90.85;;;38.38;;
34317;SDS011;20582;52.196;20.952;2023-03-01T05:10:18;88.22;;;36.92;;
34317;SDS011;20582;52.196;20.952;2023-03-01T05:12:44;93.45;;;39.70;;
34317;SDS011;20582;52.196;20.952;2023-03-01T05:15:11;96.93;;;36.63;;
34317;SDS011;20582;52.196;20.952;2023-03-01T05:17:37;84.25;;;36.13;;
34317;SDS011;20582;52.196;20.952;2023-03-01T05:20:03;83.28;;;35.05;;
34317;SDS011;20582;52.196;20.952;2023-03-01T05:22:38;89.43;;;38.65;;
34317;SDS011;20582;52.196;20.952;2023-03-01T05:25:05;84.30;;;36.58;;
34317;SDS011;20582;52.196;20.952;2023-03-01T05:27:32;87.38;;;37.42;;
34317;SDS011;20582;52.196;20.952;2023-03-01T05:29:58;87.40;;;36.75;;
34317;SDS011;20582;52.196;20.952;2023-03-01T05:32:24;92.30;;;38.03;;
34317;SDS011;20582;52.196;20.952;2023-03-01T05:34:50;80.25;;;33.13;;
34317;SDS011;20582;52.196;20.952;2023-03-01T05:37:17;81.57;;;35.22;;
34317;SDS011;20582;52.196;20.952;2023-03-01T05:39:44;88.45;;;36.08;;
34317;SDS011;20582;52.196;20.952;2023-03-01T05:42:10;88.90;;;40.10;;
34317;SDS011;20582;52.196;20.952;2023-03-01T05:44:37;88.57;;;38.80;;
34317;SDS011;20582;52.196;20.952;2023-03-01T05:47:03;85.72;;;34.15;;
34317;SDS011;20582;52.196;20.952;2023-03-01T05:49:29;87.13;;;36.00;;
34317;SDS011;20582;52.196;20.952;2023-03-01T05:51:55;84.90;;;35.97;;
34317;SDS011;20582;52.196;20.952;2023-03-01T05:54:21;88.45;;;37.03;;
34317;SDS011;20582;52.196;20.952;2023-03-01T05:56:47;88.40;;;36.70;;
34317;SDS011;20582;52.196;20.952;2023-03-01T05:59:13;84.90;;;37.90;;
34317;SDS011;20582;52.196;20.952;2023-03-01T06:01:41;83.43;;;37.70;;
34317;SDS011;20582;52.196;20.952;2023-03-01T06:04:07;86.80;;;36.88;;
34317;SDS011;20582;52.196;20.952;2023-03-01T06:06:34;89.47;;;36.45;;
34317;SDS011;20582;52.196;20.952;2023-03-01T06:09:02;90.35;;;41.22;;
34317;SDS011;20582;52.196;20.952;2023-03-01T06:11:28;96.35;;;42.40;;
34317;SDS011;20582;52.196;20.952;2023-03-01T06:13:54;97.82;;;44.08;;
34317;SDS011;20582;52.196;20.952;2023-03-01T06:16:20;87.55;;;36.90;;
34317;SDS011;20582;52.196;20.952;2023-03-01T06:18:46;110.85;;;42.35;;
34317;SDS011;20582;52.196;20.952;2023-03-01T06:21:12;104.10;;;42.65;;
34317;SDS011;20582;52.196;20.952;2023-03-01T06:23:38;115.72;;;43.80;;
34317;SDS011;20582;52.196;20.952;2023-03-01T06:26:05;109.30;;;42.13;;
34317;SDS011;20582;52.196;20.952;2023-03-01T06:28:31;136.85;;;47.67;;
34317;SDS011;20582;52.196;20.952;2023-03-01T06:30:57;103.90;;;39.70;;
34317;SDS011;20582;52.196;20.952;2023-03-01T06:33:23;93.65;;;37.25;;
34317;SDS011;20582;52.196;20.952;2023-03-01T06:35:49;83.40;;;35.80;;
34317;SDS011;20582;52.196;20.952;2023-03-01T06:38:15;84.45;;;34.65;;
34317;SDS011;20582;52.196;20.952;2023-03-01T06:40:43;78.45;;;35.65;;
34317;SDS011;20582;52.196;20.952;2023-03-01T06:43:10;78.90;;;35.78;;
34317;SDS011;20582;52.196;20.952;2023-03-01T06:45:36;76.95;;;35.20;;
34317;SDS011;20582;52.196;20.952;2023-03-01T06:48:05;75.63;;;33.08;;
34317;SDS011;20582;52.196;20.952;2023-03-01T06:50:32;74.35;;;33.47;;
34317;SDS011;20582;52.196;20.952;2023-03-01T06:52:58;74.55;;;32.53;;
34317;SDS011;20582;52.196;20.952;2023-03-01T06:55:24;75.95;;;35.45;;
34317;SDS011;20582;52.196;20.952;2023-03-01T06:57:54;72.53;;;35.58;;
34317;SDS011;20582;52.196;20.952;2023-03-01T07:00:21;73.10;;;35.83;;
34317;SDS011;20582;52.196;20.952;2023-03-01T07:02:47;78.10;;;33.17;;
34317;SDS011;20582;52.196;20.952;2023-03-01T07:05:13;71.65;;;32.15;;
34317;SDS011;20582;52.196;20.952;2023-03-01T07:07:39;77.53;;;36.97;;
34317;SDS011;20582;52.196;20.952;2023-03-01T07:10:05;79.82;;;35.70;;
34317;SDS011;20582;52.196;20.952;2023-03-01T07:12:31;70.13;;;35.53;;
34317;SDS011;20582;52.196;20.952;2023-03-01T07:14:57;65.75;;;31.67;;
34317;SDS011;20582;52.196;20.952;2023-03-01T07:17:23;72.00;;;31.80;;
34317;SDS011;20582;52.196;20.952;2023-03-01T07:19:49;77.60;;;34.20;;
34317;SDS011;20582;52.196;20.952;2023-03-01T07:22:15;72.55;;;31.90;;
34317;SDS011;20582;52.196;20.952;2023-03-01T07:24:41;69.78;;;33.85;;
34317;SDS011;20582;52.196;20.952;2023-03-01T07:27:07;72.65;;;34.40;;
34317;SDS011;20582;52.196;20.952;2023-03-01T07:29:33;67.10;;;33.38;;
34317;SDS011;20582;52.196;20.952;2023-03-01T07:32:01;74.68;;;32.33;;
34317;SDS011;20582;52.196;20.952;2023-03-01T07:34:27;72.50;;;32.13;;
34317;SDS011;20582;52.196;20.952;2023-03-01T07:36:54;65.20;;;30.25;;
34317;SDS011;20582;52.196;20.952;2023-03-01T07:39:20;65.60;;;30.42;;
34317;SDS011;20582;52.196;20.952;2023-03-01T07:41:48;68.45;;;32.65;;
34317;SDS011;20582;52.196;20.952;2023-03-01T07:44:14;65.15;;;31.90;;
34317;SDS011;20582;52.196;20.952;2023-03-01T07:46:41;71.65;;;31.48;;
34317;SDS011;20582;52.196;20.952;2023-03-01T07:49:07;62.97;;;28.95;;
34317;SDS011;20582;52.196;20.952;2023-03-01T07:51:33;60.65;;;29.38;;
34317;SDS011;20582;52.196;20.952;2023-03-01T07:53:59;61.75;;;28.85;;
34317;SDS011;20582;52.196;20.952;2023-03-01T07:56:25;54.28;;;27.55;;
34317;SDS011;20582;52.196;20.952;2023-03-01T07:58:51;57.50;;;28.73;;
34317;SDS011;20582;52.196;20.952;2023-03-01T08:01:18;64.20;;;28.13;;
34317;SDS011;20582;52.196;20.952;2023-03-01T08:03:44;62.17;;;29.10;;
34317;SDS011;20582;52.196;20.952;2023-03-01T08:06:11;60.40;;;29.88;;
34317;SDS011;20582;52.196;20.952;2023-03-01T08:08:37;56.05;;;27.65;;
34317;SDS011;20582;52.196;20.952;2023-03-01T08:11:04;61.17;;;28.98;;
34317;SDS011;20582;52.196;20.952;2023-03-01T08:13:31;63.15;;;28.88;;
34317;SDS011;20582;52.196;20.952;2023-03-01T08:16:03;54.92;;;28.30;;
34317;SDS011;20582;52.196;20.952;2023-03-01T08:18:30;56.65;;;26.27;;
34317;SDS011;20582;52.196;20.952;2023-03-01T08:21:00;56.17;;;28.48;;
34317;SDS011;20582;52.196;20.952;2023-03-01T08:23:26;54.67;;;26.67;;
34317;SDS011;20582;52.196;20.952;2023-03-01T08:25:52;47.25;;;22.95;;
34317;SDS011;20582;52.196;20.952;2023-03-01T08:28:18;47.80;;;23.92;;
34317;SDS011;20582;52.196;20.952;2023-03-01T08:30:44;55.85;;;28.77;;
34317;SDS011;20582;52.196;20.952;2023-03-01T08:33:10;52.92;;;28.30;;
34317;SDS011;20582;52.196;20.952;2023-03-01T08:35:36;49.47;;;26.58;;
34317;SDS011;20582;52.196;20.952;2023-03-01T08:38:02;47.22;;;25.75;;
34317;SDS011;20582;52.196;20.952;2023-03-01T08:40:28;43.95;;;24.52;;
34317;SDS011;20582;52.196;20.952;2023-03-01T08:42:54;40.25;;;21.65;;
34317;SDS011;20582;52.196;20.952;2023-03-01T08:45:21;43.88;;;25.48;;
34317;SDS011;20582;52.196;20.952;2023-03-01T08:47:47;39.65;;;22.63;;
34317;SDS011;20582;52.196;20.952;2023-03-01T08:50:13;37.50;;;22.77;;
34317;SDS011;20582;52.196;20.952;2023-03-01T08:52:39;38.75;;;22.38;;
34317;SDS011;20582;52.196;20.952;2023-03-01T08:55:05;40.42;;;24.58;;
34317;SDS011;20582;52.196;20.952;2023-03-01T08:57:31;39.33;;;22.60;;
34317;SDS011;20582;52.196;20.952;2023-03-01T08:59:58;36.97;;;23.25;;
34317;SDS011;20582;52.196;20.952;2023-03-01T09:02:24;35.33;;;22.08;;
34317;SDS011;20582;52.196;20.952;2023-03-01T09:04:50;35.88;;;22.58;;
34317;SDS011;20582;52.196;20.952;2023-03-01T09:07:15;38.85;;;22.83;;
34317;SDS011;20582;52.196;20.952;2023-03-01T09:09:41;35.08;;;22.05;;
34317;SDS011;20582;52.196;20.952;2023-03-01T09:12:07;35.55;;;23.83;;
34317;SDS011;20582;52.196;20.952;2023-03-01T09:14:35;37.78;;;24.38;;
34317;SDS011;20582;52.196;20.952;2023-03-01T09:17:03;37.47;;;24.88;;
34317;SDS011;20582;52.196;20.952;2023-03-01T09:19:29;42.33;;;25.52;;
34317;SDS011;20582;52.196;20.952;2023-03-01T09:21:55;38.85;;;24.20;;
34317;SDS011;20582;52.196;20.952;2023-03-01T09:24:23;34.03;;;21.73;;
34317;SDS011;20582;52.196;20.952;2023-03-01T09:26:49;37.97;;;22.35;;
34317;SDS011;20582;52.196;20.952;2023-03-01T09:29:15;37.15;;;21.55;;
34317;SDS011;20582;52.196;20.952;2023-03-01T09:31:42;38.75;;;22.33;;
34317;SDS011;20582;52.196;20.952;2023-03-01T09:34:08;31.77;;;20.25;;
34317;SDS011;20582;52.196;20.952;2023-03-01T09:36:34;41.22;;;22.40;;
34317;SDS011;20582;52.196;20.952;2023-03-01T09:39:01;37.10;;;22.80;;
34317;SDS011;20582;52.196;20.952;2023-03-01T09:41:38;34.88;;;21.42;;
34317;SDS011;20582;52.196;20.952;2023-03-01T09:46:36;38.33;;;20.80;;
34317;SDS011;20582;52.196;20.952;2023-03-01T09:49:14;37.80;;;21.60;;
34317;SDS011;20582;52.196;20.952;2023-03-01T09:51:42;39.40;;;20.58;;
34317;SDS011;20582;52.196;20.952;2023-03-01T09:54:08;32.25;;;20.60;;
34317;SDS011;20582;52.196;20.952;2023-03-01T09:56:46;34.17;;;20.38;;
34317;SDS011;20582;52.196;20.952;2023-03-01T10:02:26;34.08;;;21.58;;
34317;SDS011;20582;52.196;20.952;2023-03-01T10:04:50;37.50;;;20.25;;
34317;SDS011;20582;52.196;20.952;2023-03-01T10:09:43;29.52;;;19.15;;
34317;SDS011;20582;52.196;20.952;2023-03-01T10:12:11;33.40;;;19.52;;
34317;SDS011;20582;52.196;20.952;2023-03-01T10:14:43;31.02;;;18.98;;
34317;SDS011;20582;52.196;20.952;2023-03-01T10:19:43;27.00;;;19.35;;
34317;SDS011;20582;52.196;20.952;2023-03-01T10:24:36;29.23;;;17.60;;
34317;SDS011;20582;52.196;20.952;2023-03-01T10:27:06;24.58;;;16.77;;
34317;SDS011;20582;52.196;20.952;2023-03-01T10:29:37;24.20;;;17.00;;
34317;SDS011;20582;52.196;20.952;2023-03-01T10:32:04;27.45;;;17.15;;
34317;SDS011;20582;52.196;20.952;2023-03-01T10:34:34;27.13;;;16.90;;
34317;SDS011;20582;52.196;20.952;2023-03-01T10:37:13;24.40;;;16.10;;
34317;SDS011;20582;52.196;20.952;2023-03-01T10:40:00;22.60;;;14.32;;
34317;SDS011;20582;52.196;20.952;2023-03-01T10:42:31;22.45;;;14.32;;
34317;SDS011;20582;52.196;20.952;2023-03-01T10:45:15;23.77;;;15.18;;
34317;SDS011;20582;52.196;20.952;2023-03-01T10:47:42;27.05;;;14.57;;
34317;SDS011;20582;52.196;20.952;2023-03-01T10:50:17;24.33;;;14.10;;
34317;SDS011;20582;52.196;20.952;2023-03-01T10:52:55;23.85;;;14.60;;
34317;SDS011;20582;52.196;20.952;2023-03-01T10:55:27;22.65;;;14.77;;
34317;SDS011;20582;52.196;20.952;2023-03-01T11:00:53;20.75;;;13.65;;
34317;SDS011;20582;52.196;20.952;2023-03-01T11:05:54;20.90;;;13.90;;
34317;SDS011;20582;52.196;20.952;2023-03-01T11:10:46;23.05;;;15.35;;
34317;SDS011;20582;52.196;20.952;2023-03-01T11:13:16;22.95;;;15.20;;
34317;SDS011;20582;52.196;20.952;2023-03-01T11:15:43;24.20;;;15.00;;
34317;SDS011;20582;52.196;20.952;2023-03-01T11:18:19;24.92;;;15.55;;
34317;SDS011;20582;52.196;20.952;2023-03-01T11:20:45;26.63;;;15.18;;
34317;SDS011;20582;52.196;20.952;2023-03-01T11:23:12;24.13;;;15.27;;
34317;SDS011;20582;52.196;20.952;2023-03-01T11:25:43;26.80;;;15.00;;
34317;SDS011;20582;52.196;20.952;2023-03-01T11:28:12;22.77;;;15.02;;
34317;SDS011;20582;52.196;20.952;2023-03-01T11:30:41;25.55;;;14.82;;
34317;SDS011;20582;52.196;20.952;2023-03-01T11:35:41;24.70;;;13.23;;
34317;SDS011;20582;52.196;20.952;2023-03-01T11:38:24;19.95;;;12.10;;
34317;SDS011;20582;52.196;20.952;2023-03-01T11:41:01;18.77;;;12.32;;
34317;SDS011;20582;52.196;20.952;2023-03-01T11:43:50;20.80;;;12.57;;
34317;SDS011;20582;52.196;20.952;2023-03-01T11:54:26;17.90;;;11.85;;
34317;SDS011;20582;52.196;20.952;2023-03-01T11:56:55;18.40;;;11.93;;
34317;SDS011;20582;52.196;20.952;2023-03-01T12:04:49;18.35;;;12.05;;
34317;SDS011;20582;52.196;20.952;2023-03-01T12:07:21;20.60;;;11.70;;
34317;SDS011;20582;52.196;20.952;2023-03-01T12:10:37;18.77;;;11.88;;
34317;SDS011;20582;52.196;20.952;2023-03-01T12:33:33;16.48;;;11.85;;
34317;SDS011;20582;52.196;20.952;2023-03-01T12:41:31;17.83;;;12.82;;
34317;SDS011;20582;52.196;20.952;2023-03-01T12:49:19;18.45;;;12.70;;
34317;SDS011;20582;52.196;20.952;2023-03-01T12:54:33;20.52;;;13.20;;
34317;SDS011;20582;52.196;20.952;2023-03-01T12:57:03;23.90;;;13.63;;
34317;SDS011;20582;52.196;20.952;2023-03-01T12:59:34;19.95;;;14.38;;
34317;SDS011;20582;52.196;20.952;2023-03-01T13:02:09;20.05;;;13.82;;
34317;SDS011;20582;52.196;20.952;2023-03-01T13:12:46;20.35;;;13.18;;
34317;SDS011;20582;52.196;20.952;2023-03-01T13:15:25;20.48;;;13.93;;
34317;SDS011;20582;52.196;20.952;2023-03-01T13:20:53;22.48;;;13.02;;
34317;SDS011;20582;52.196;20.952;2023-03-01T13:26:08;23.55;;;13.90;;
34317;SDS011;20582;52.196;20.952;2023-03-01T13:31:03;20.42;;;13.05;;
34317;SDS011;20582;52.196;20.952;2023-03-01T13:35:55;24.05;;;13.55;;
34317;SDS011;20582;52.196;20.952;2023-03-01T13:41:07;25.58;;;14.50;;
34317;SDS011;20582;52.196;20.952;2023-03-01T13:43:37;23.55;;;14.65;;
34317;SDS011;20582;52.196;20.952;2023-03-01T13:46:10;18.98;;;13.10;;
34317;SDS011;20582;52.196;20.952;2023-03-01T13:48:37;20.45;;;13.20;;
34317;SDS011;20582;52.196;20.952;2023-03-01T13:51:05;20.52;;;13.20;;
34317;SDS011;20582;52.196;20.952;2023-03-01T13:53:34;23.50;;;14.10;;
34317;SDS011;20582;52.196;20.952;2023-03-01T13:56:02;21.98;;;13.48;;
34317;SDS011;20582;52.196;20.952;2023-03-01T13:58:30;23.50;;;14.25;;
34317;SDS011;20582;52.196;20.952;2023-03-01T14:00:57;24.83;;;14.38;;
34317;SDS011;20582;52.196;20.952;2023-03-01T14:03:23;25.42;;;14.65;;
34317;SDS011;20582;52.196;20.952;2023-03-01T14:08:26;24.52;;;14.73;;
34317;SDS011;20582;52.196;20.952;2023-03-01T14:16:16;22.95;;;14.65;;
34317;SDS011;20582;52.196;20.952;2023-03-01T14:21:27;24.65;;;15.50;;
34317;SDS011;20582;52.196;20.952;2023-03-01T14:23:53;25.23;;;15.55;;
34317;SDS011;20582;52.196;20.952;2023-03-01T14:26:20;25.73;;;15.57;;
34317;SDS011;20582;52.196;20.952;2023-03-01T14:28:46;25.27;;;15.73;;
34317;SDS011;20582;52.196;20.952;2023-03-01T14:31:34;28.05;;;15.55;;
34317;SDS011;20582;52.196;20.952;2023-03-01T14:34:00;25.65;;;15.80;;
34317;SDS011;20582;52.196;20.952;2023-03-01T14:36:27;24.55;;;14.98;;
34317;SDS011;20582;52.196;20.952;2023-03-01T14:38:53;26.38;;;14.23;;
34317;SDS011;20582;52.196;20.952;2023-03-01T14:41:23;24.10;;;12.65;;
34317;SDS011;20582;52.196;20.952;2023-03-01T14:43:50;20.30;;;11.73;;
34317;SDS011;20582;52.196;20.952;2023-03-01T14:46:18;21.42;;;11.90;;
34317;SDS011;20582;52.196;20.952;2023-03-01T14:48:45;21.83;;;13.13;;
34317;SDS011;20582;52.196;20.952;2023-03-01T14:51:11;22.58;;;13.00;;
34317;SDS011;20582;52.196;20.952;2023-03-01T14:53:37;22.30;;;13.70;;
34317;SDS011;20582;52.196;20.952;2023-03-01T14:56:03;22.00;;;13.63;;
34317;SDS011;20582;52.196;20.952;2023-03-01T14:58:31;24.50;;;14.20;;
34317;SDS011;20582;52.196;20.952;2023-03-01T15:00:58;24.40;;;14.77;;
34317;SDS011;20582;52.196;20.952;2023-03-01T15:05:50;26.58;;;15.18;;
34317;SDS011;20582;52.196;20.952;2023-03-01T15:08:18;24.77;;;13.57;;
34317;SDS011;20582;52.196;20.952;2023-03-01T15:11:16;27.85;;;15.15;;
34317;SDS011;20582;52.196;20.952;2023-03-01T15:13:32;28.23;;;14.55;;
34317;SDS011;20582;52.196;20.952;2023-03-01T15:16:05;25.25;;;14.60;;
34317;SDS011;20582;52.196;20.952;2023-03-01T15:18:32;25.17;;;14.15;;
34317;SDS011;20582;52.196;20.952;2023-03-01T15:21:08;30.60;;;15.82;;
34317;SDS011;20582;52.196;20.952;2023-03-01T15:23:35;32.28;;;15.88;;
34317;SDS011;20582;52.196;20.952;2023-03-01T15:26:02;28.85;;;16.15;;
34317;SDS011;20582;52.196;20.952;2023-03-01T15:28:33;29.02;;;16.70;;
34317;SDS011;20582;52.196;20.952;2023-03-01T15:31:01;30.63;;;16.25;;
34317;SDS011;20582;52.196;20.952;2023-03-01T15:33:32;33.40;;;16.20;;
34317;SDS011;20582;52.196;20.952;2023-03-01T15:35:59;28.08;;;15.73;;
34317;SDS011;20582;52.196;20.952;2023-03-01T15:40:52;30.35;;;17.15;;
34317;SDS011;20582;52.196;20.952;2023-03-01T15:43:37;35.78;;;17.45;;
34317;SDS011;20582;52.196;20.952;2023-03-01T15:46:03;31.52;;;17.45;;
34317;SDS011;20582;52.196;20.952;2023-03-01T15:48:30;34.38;;;16.77;;
34317;SDS011;20582;52.196;20.952;2023-03-01T15:50:57;35.38;;;17.48;;
34317;SDS011;20582;52.196;20.952;2023-03-01T15:53:23;32.50;;;16.50;;
34317;SDS011;20582;52.196;20.952;2023-03-01T15:55:49;33.67;;;17.42;;
34317;SDS011;20582;52.196;20.952;2023-03-01T15:58:17;37.95;;;17.80;;
34317;SDS011;20582;52.196;20.952;2023-03-01T16:00:44;34.30;;;16.83;;
34317;SDS011;20582;52.196;20.952;2023-03-01T16:03:10;36.60;;;16.20;;
34317;SDS011;20582;52.196;20.952;2023-03-01T16:05:37;35.38;;;17.17;;
34317;SDS011;20582;52.196;20.952;2023-03-01T16:08:03;40.30;;;16.90;;
34317;SDS011;20582;52.196;20.952;2023-03-01T16:10:31;33.83;;;16.25;;
34317;SDS011;20582;52.196;20.952;2023-03-01T16:12:57;31.98;;;15.35;;
34317;SDS011;20582;52.196;20.952;2023-03-01T16:15:24;34.78;;;14.63;;
34317;SDS011;20582;52.196;20.952;2023-03-01T16:17:52;34.22;;;16.48;;
34317;SDS011;20582;52.196;20.952;2023-03-01T16:20:18;30.17;;;15.07;;
34317;SDS011;20582;52.196;20.952;2023-03-01T16:22:44;32.55;;;16.08;;